Time;durP1;ratioP1;P1;durP2;ratioP2;P2;SDS_P1;SDS_P2;PMS_P1;PMS_P2;Temp;Humidity;BMP_temperature;BMP_pressure;BME280_temperature;BME280_humidity;BME280_pressure;Samples;Min_cycle;Max_cycle;Signal;HPM_P1;HPM_P2
2021/03/24 00:01:20;;;;;;;59.83;29.17;;;;;;;;;;5071479;28;20021;-85
2021/03/24 00:03:45;;;;;;;57.53;29.25;;;;;;;;;;5069937;28;20029;-85
2021/03/24 00:06:10;;;;;;;69.32;29.40;;;;;;;;;;5070075;28;20081;-85
2021/03/24 00:08:36;;;;;;;58.20;29.58;;;;;;;;;;5068712;28;20020;-85
2021/03/24 00:11:01;;;;;;;62.90;28.95;;;;;;;;;;5070370;28;20500;-85
2021/03/24 00:13:26;;;;;;;65.38;31.00;;;;;;;;;;5068569;28;20024;-85
2021/03/24 00:15:51;;;;;;;77.00;30.95;;;;;;;;;;5069053;28;20141;-85
2021/03/24 00:18:17;;;;;;;61.58;29.45;;;;;;;;;;5070423;28;20074;-85
2021/03/24 00:20:43;;;;;;;65.72;28.77;;;;;;;;;;5069221;28;20027;-84
2021/03/24 00:23:08;;;;;;;68.55;29.30;;;;;;;;;;5059804;28;20025;-85
2021/03/24 00:25:34;;;;;;;62.85;29.58;;;;;;;;;;5071160;28;20020;-85
2021/03/24 00:28:00;;;;;;;61.13;27.27;;;;;;;;;;5068138;28;20044;-85
2021/03/24 00:30:27;;;;;;;71.72;29.48;;;;;;;;;;5069165;28;20096;-85
2021/03/24 00:32:52;;;;;;;59.47;29.38;;;;;;;;;;5067369;28;20059;-86
2021/03/24 00:35:18;;;;;;;72.60;31.05;;;;;;;;;;5068530;28;20052;-86
2021/03/24 00:37:43;;;;;;;54.97;28.23;;;;;;;;;;5068139;28;20023;-85
2021/03/24 00:40:10;;;;;;;65.72;28.77;;;;;;;;;;5068721;28;20009;-85
2021/03/24 00:42:36;;;;;;;76.22;32.55;;;;;;;;;;5070340;28;20032;-85
2021/03/24 00:45:02;;;;;;;66.97;30.50;;;;;;;;;;5069760;28;20020;-84
2021/03/24 00:47:28;;;;;;;62.00;31.52;;;;;;;;;;5065776;28;20566;-85
2021/03/24 00:49:53;;;;;;;65.82;30.17;;;;;;;;;;5063022;28;20032;-85
2021/03/24 00:52:18;;;;;;;62.53;29.40;;;;;;;;;;5068595;28;20048;-85
2021/03/24 00:54:43;;;;;;;64.70;28.88;;;;;;;;;;5068307;28;20020;-85
2021/03/24 00:57:08;;;;;;;65.15;30.10;;;;;;;;;;5060186;28;20472;-85
2021/03/24 00:59:34;;;;;;;61.00;29.15;;;;;;;;;;5068984;28;20027;-85
2021/03/24 01:01:59;;;;;;;71.38;30.20;;;;;;;;;;5071317;28;20063;-85
2021/03/24 01:04:24;;;;;;;66.53;28.85;;;;;;;;;;5067782;28;20020;-84
2021/03/24 01:06:49;;;;;;;69.05;30.13;;;;;;;;;;5067262;28;20035;-85
2021/03/24 01:09:14;;;;;;;65.18;31.70;;;;;;;;;;5066835;28;20725;-85
2021/03/24 01:11:40;;;;;;;67.50;28.38;;;;;;;;;;5072972;28;20048;-85
2021/03/24 01:14:06;;;;;;;76.25;31.73;;;;;;;;;;5070871;28;20688;-85
2021/03/24 01:16:32;;;;;;;62.80;30.05;;;;;;;;;;5070894;28;20089;-85
2021/03/24 01:18:57;;;;;;;66.13;29.73;;;;;;;;;;5070411;28;20009;-85
2021/03/24 01:21:22;;;;;;;65.43;29.65;;;;;;;;;;5071405;28;20082;-84
2021/03/24 01:23:48;;;;;;;66.82;29.05;;;;;;;;;;5072205;28;20017;-85
2021/03/24 01:26:13;;;;;;;66.60;29.45;;;;;;;;;;5066081;28;20020;-84
2021/03/24 01:28:38;;;;;;;66.00;29.67;;;;;;;;;;5050687;22;20046;-63
2021/03/24 01:31:04;;;;;;;62.85;28.63;;;;;;;;;;5024260;28;20526;-65
2021/03/24 01:33:29;;;;;;;65.43;30.13;;;;;;;;;;5031090;28;20034;-63
2021/03/24 01:35:54;;;;;;;61.03;28.10;;;;;;;;;;5031879;28;20013;-65
2021/03/24 01:38:20;;;;;;;64.78;29.25;;;;;;;;;;5018981;28;20014;-66
2021/03/24 01:40:47;;;;;;;63.63;29.77;;;;;;;;;;5033240;28;20026;-66
2021/03/24 01:43:18;;;;;;;69.82;29.77;;;;;;;;;;5033584;28;20493;-65
2021/03/24 01:46:02;;;;;;;67.50;30.75;;;;;;;;;;5037297;28;20021;-63
2021/03/24 01:48:27;;;;;;;70.10;29.88;;;;;;;;;;5032058;28;20022;-64
2021/03/24 01:50:52;;;;;;;62.03;29.30;;;;;;;;;;5032761;28;20096;-64
2021/03/24 01:53:18;;;;;;;68.75;28.55;;;;;;;;;;5033044;28;20017;-64
2021/03/24 01:55:43;;;;;;;58.75;28.92;;;;;;;;;;5023779;28;20396;-65
2021/03/24 01:58:09;;;;;;;70.05;31.55;;;;;;;;;;5032572;28;20088;-64
2021/03/24 02:00:36;;;;;;;63.15;29.55;;;;;;;;;;5032907;28;20017;-65
2021/03/24 02:03:03;;;;;;;70.60;29.58;;;;;;;;;;5032730;28;20013;-64
2021/03/24 02:05:28;;;;;;;62.53;28.27;;;;;;;;;;5031016;28;20112;-65
2021/03/24 02:07:57;;;;;;;71.88;29.58;;;;;;;;;;5032022;28;20104;-65
2021/03/24 02:10:41;;;;;;;79.25;30.70;;;;;;;;;;5032513;28;20025;-65
2021/03/24 02:13:12;;;;;;;69.13;28.88;;;;;;;;;;5032230;28;20029;-64
2021/03/24 02:15:41;;;;;;;64.13;29.90;;;;;;;;;;5027293;28;20013;-65
2021/03/24 02:18:07;;;;;;;65.33;29.53;;;;;;;;;;5032557;28;20017;-65
2021/03/24 02:20:51;;;;;;;68.50;28.40;;;;;;;;;;5031950;28;20021;-65
2021/03/24 02:23:16;;;;;;;68.20;30.52;;;;;;;;;;5026104;28;20437;-64
2021/03/24 02:25:47;;;;;;;69.67;30.40;;;;;;;;;;5045564;28;20029;-65
2021/03/24 02:28:13;;;;;;;68.95;29.58;;;;;;;;;;5031414;28;20276;-65
2021/03/24 02:30:41;;;;;;;61.88;28.23;;;;;;;;;;5039510;28;20147;-64
2021/03/24 02:33:09;;;;;;;64.18;29.58;;;;;;;;;;5047441;28;20377;-65
2021/03/24 02:35:36;;;;;;;67.25;28.55;;;;;;;;;;5030791;28;20102;-64
2021/03/24 02:38:03;;;;;;;61.42;28.70;;;;;;;;;;5030807;28;20021;-64
2021/03/24 02:40:29;;;;;;;77.47;29.83;;;;;;;;;;5033132;28;20014;-65
2021/03/24 02:42:56;;;;;;;64.22;29.42;;;;;;;;;;5029946;28;20268;-65
2021/03/24 02:45:23;;;;;;;66.90;29.92;;;;;;;;;;5014979;28;20028;-64
2021/03/24 02:47:48;;;;;;;71.57;28.38;;;;;;;;;;5031631;28;20022;-65
2021/03/24 02:50:15;;;;;;;72.07;28.88;;;;;;;;;;5029403;28;20029;-64
2021/03/24 02:52:40;;;;;;;71.93;29.90;;;;;;;;;;5032035;28;20147;-64
2021/03/24 02:55:06;;;;;;;66.40;28.55;;;;;;;;;;5031434;28;20108;-64
2021/03/24 02:57:31;;;;;;;73.55;29.38;;;;;;;;;;5031167;28;20017;-64
2021/03/24 02:59:57;;;;;;;70.68;28.95;;;;;;;;;;5031376;28;20025;-64
2021/03/24 03:02:24;;;;;;;64.07;30.13;;;;;;;;;;5031837;28;20024;-64
2021/03/24 03:04:57;;;;;;;71.18;29.70;;;;;;;;;;5019763;28;20098;-64
2021/03/24 03:07:24;;;;;;;59.10;27.67;;;;;;;;;;5031134;28;20532;-64
2021/03/24 03:09:51;;;;;;;75.32;29.88;;;;;;;;;;5038490;28;20021;-64
2021/03/24 03:12:34;;;;;;;67.60;29.40;;;;;;;;;;5030317;28;20033;-64
2021/03/24 03:15:03;;;;;;;56.40;26.48;;;;;;;;;;5031401;28;20076;-63
2021/03/24 03:17:33;;;;;;;72.70;30.67;;;;;;;;;;5030916;28;20025;-64
2021/03/24 03:20:13;;;;;;;67.68;28.92;;;;;;;;;;5027035;28;20022;-63
2021/03/24 03:22:47;;;;;;;68.70;29.63;;;;;;;;;;5031287;28;20428;-64
2021/03/24 03:25:19;;;;;;;65.40;30.23;;;;;;;;;;5047193;28;20028;-64
2021/03/24 03:27:45;;;;;;;65.65;28.55;;;;;;;;;;5030324;28;20021;-64
2021/03/24 03:30:12;;;;;;;59.20;28.23;;;;;;;;;;5025363;28;20387;-64
2021/03/24 03:32:38;;;;;;;69.47;28.75;;;;;;;;;;5030743;28;20112;-64
2021/03/24 03:35:07;;;;;;;71.05;31.30;;;;;;;;;;5031048;28;20559;-64
2021/03/24 03:37:32;;;;;;;64.00;28.75;;;;;;;;;;5021733;28;20025;-64
2021/03/24 03:39:57;;;;;;;62.97;29.02;;;;;;;;;;5030630;28;20075;-64
2021/03/24 03:42:23;;;;;;;74.35;31.55;;;;;;;;;;5030553;28;20013;-64
2021/03/24 03:44:49;;;;;;;65.47;31.83;;;;;;;;;;5031392;28;20029;-64
2021/03/24 03:47:15;;;;;;;78.65;29.85;;;;;;;;;;5023928;28;20116;-64
2021/03/24 03:49:40;;;;;;;68.13;28.85;;;;;;;;;;5032136;28;20434;-64
2021/03/24 03:52:08;;;;;;;72.90;29.67;;;;;;;;;;5040000;28;20020;-64
2021/03/24 03:54:35;;;;;;;65.43;29.20;;;;;;;;;;5030372;28;20033;-64
2021/03/24 03:57:06;;;;;;;78.40;30.35;;;;;;;;;;5021755;28;20062;-64
2021/03/24 03:59:31;;;;;;;64.88;28.45;;;;;;;;;;5029719;28;20370;-64
2021/03/24 04:01:58;;;;;;;72.57;30.33;;;;;;;;;;5030343;28;20010;-64
2021/03/24 04:04:37;;;;;;;71.82;30.77;;;;;;;;;;5031239;28;20268;-64
2021/03/24 04:07:14;;;;;;;74.13;29.77;;;;;;;;;;5016679;28;20029;-64
2021/03/24 04:09:40;;;;;;;65.68;28.38;;;;;;;;;;5028557;28;20025;-64
2021/03/24 04:12:08;;;;;;;68.47;30.40;;;;;;;;;;5030176;28;20033;-64
2021/03/24 04:14:33;;;;;;;74.78;28.98;;;;;;;;;;5028632;28;20121;-64
2021/03/24 04:16:59;;;;;;;70.90;29.83;;;;;;;;;;5030368;28;20454;-64
2021/03/24 04:19:27;;;;;;;69.55;29.20;;;;;;;;;;5030368;28;20018;-64
2021/03/24 04:21:54;;;;;;;67.28;31.17;;;;;;;;;;5030206;28;20060;-64
2021/03/24 04:24:27;;;;;;;69.15;29.40;;;;;;;;;;5015645;28;20025;-64
2021/03/24 04:26:54;;;;;;;65.20;29.23;;;;;;;;;;5030373;28;20087;-65
2021/03/24 04:29:26;;;;;;;67.90;29.85;;;;;;;;;;5029603;28;20040;-65
2021/03/24 04:31:56;;;;;;;67.97;29.98;;;;;;;;;;5030676;28;20609;-65
2021/03/24 04:34:21;;;;;;;73.43;28.92;;;;;;;;;;5031001;28;20104;-65
2021/03/24 04:36:57;;;;;;;65.45;29.83;;;;;;;;;;5030005;28;20060;-64
2021/03/24 04:39:25;;;;;;;74.15;29.85;;;;;;;;;;5029641;28;20036;-65
2021/03/24 04:41:51;;;;;;;68.07;29.00;;;;;;;;;;5020181;28;20063;-65
2021/03/24 04:44:20;;;;;;;68.00;29.67;;;;;;;;;;5029867;28;20036;-65
2021/03/24 04:46:48;;;;;;;71.82;30.77;;;;;;;;;;5045669;28;20022;-65
2021/03/24 04:49:16;;;;;;;65.13;28.70;;;;;;;;;;5034035;28;20505;-65
2021/03/24 04:51:41;;;;;;;63.25;27.98;;;;;;;;;;5033979;28;20535;-65
2021/03/24 04:54:13;;;;;;;66.68;29.73;;;;;;;;;;5033082;28;20029;-64
2021/03/24 04:56:39;;;;;;;72.65;29.48;;;;;;;;;;5033670;28;20014;-64
2021/03/24 04:59:04;;;;;;;70.63;30.70;;;;;;;;;;5033492;28;20545;-65
2021/03/24 05:01:37;;;;;;;65.97;28.17;;;;;;;;;;5033543;28;20018;-64
2021/03/24 05:04:07;;;;;;;80.20;30.58;;;;;;;;;;5032991;28;20017;-64
2021/03/24 05:06:36;;;;;;;60.60;28.80;;;;;;;;;;5032519;28;20025;-65
2021/03/24 05:09:04;;;;;;;65.30;28.48;;;;;;;;;;5033166;28;20033;-64
2021/03/24 05:11:32;;;;;;;67.60;29.08;;;;;;;;;;5028772;28;20055;-64
2021/03/24 05:14:01;;;;;;;73.18;29.63;;;;;;;;;;5040301;28;20033;-64
2021/03/24 05:16:34;;;;;;;64.87;27.80;;;;;;;;;;5053587;28;20017;-64
2021/03/24 05:19:00;;;;;;;61.47;28.30;;;;;;;;;;5033392;28;20691;-64
2021/03/24 05:21:29;;;;;;;68.70;29.35;;;;;;;;;;5028302;28;20121;-64
2021/03/24 05:23:57;;;;;;;72.43;30.55;;;;;;;;;;5033496;28;20481;-64
2021/03/24 05:26:25;;;;;;;71.63;30.52;;;;;;;;;;5033070;28;20112;-65
2021/03/24 05:28:53;;;;;;;71.38;29.60;;;;;;;;;;5032897;28;20021;-65
2021/03/24 05:31:22;;;;;;;66.30;28.30;;;;;;;;;;5016165;28;20030;-65
2021/03/24 05:33:50;;;;;;;73.25;29.63;;;;;;;;;;5032531;28;20401;-65
2021/03/24 05:36:17;;;;;;;67.93;25.15;;;;;;;;;;5031916;28;20440;-64
2021/03/24 05:38:44;;;;;;;70.50;26.08;;;;;;;;;;5033070;28;20048;-65
2021/03/24 05:41:28;;;;;;;60.78;27.17;;;;;;;;;;5018495;28;20029;-64
2021/03/24 05:44:08;;;;;;;75.63;28.98;;;;;;;;;;5033240;28;20055;-65
2021/03/24 05:46:58;;;;;;;67.10;27.65;;;;;;;;;;5033327;28;20025;-65
2021/03/24 05:49:29;;;;;;;68.57;28.88;;;;;;;;;;5023408;28;20032;-65
2021/03/24 05:52:04;;;;;;;73.72;27.40;;;;;;;;;;5030876;28;20029;-65
2021/03/24 05:54:47;;;;;;;72.68;30.45;;;;;;;;;;5030014;28;20444;-65
2021/03/24 05:57:15;;;;;;;71.82;28.95;;;;;;;;;;5028797;28;20025;-65
2021/03/24 05:59:46;;;;;;;71.00;28.58;;;;;;;;;;5026734;28;20104;-65
2021/03/24 06:02:17;;;;;;;64.63;29.77;;;;;;;;;;5029781;28;20053;-65
2021/03/24 06:04:48;;;;;;;79.00;30.65;;;;;;;;;;5031070;28;20116;-65
2021/03/24 06:07:27;;;;;;;68.70;29.65;;;;;;;;;;5029814;28;20022;-65
2021/03/24 06:10:02;;;;;;;71.22;30.30;;;;;;;;;;5023186;28;20041;-65
2021/03/24 06:12:34;;;;;;;76.95;30.42;;;;;;;;;;5029404;28;20014;-65
2021/03/24 06:15:18;;;;;;;71.50;30.50;;;;;;;;;;5030226;28;20021;-65
2021/03/24 06:17:43;;;;;;;63.80;27.50;;;;;;;;;;5030138;28;20413;-64
2021/03/24 06:20:25;;;;;;;71.37;27.13;;;;;;;;;;5029295;28;20033;-65
2021/03/24 06:23:09;;;;;;;70.00;31.13;;;;;;;;;;5027593;28;20268;-66
2021/03/24 06:25:40;;;;;;;65.93;28.33;;;;;;;;;;5029646;28;20029;-64
2021/03/24 06:28:23;;;;;;;62.60;28.30;;;;;;;;;;5027632;28;20493;-63
2021/03/24 06:31:00;;;;;;;69.35;30.02;;;;;;;;;;5029051;28;20025;-64
2021/03/24 06:33:54;;;;;;;69.88;29.70;;;;;;;;;;5028790;28;20116;-64
2021/03/24 06:36:38;;;;;;;69.53;28.73;;;;;;;;;;5014895;28;20107;-66
2021/03/24 06:39:03;;;;;;;64.70;28.02;;;;;;;;;;5022427;28;20025;-65
2021/03/24 06:41:38;;;;;;;63.58;28.73;;;;;;;;;;5018864;28;20026;-65
2021/03/24 06:44:09;;;;;;;57.15;26.08;;;;;;;;;;5028199;28;20032;-65
2021/03/24 06:46:38;;;;;;;64.80;27.85;;;;;;;;;;5029409;28;20021;-63
2021/03/24 06:49:21;;;;;;;55.33;26.17;;;;;;;;;;5026933;28;20021;-64
2021/03/24 06:51:49;;;;;;;55.45;22.75;;;;;;;;;;5024775;28;20029;-63
2021/03/24 06:54:33;;;;;;;58.50;26.08;;;;;;;;;;5019635;28;20489;-63
2021/03/24 06:57:17;;;;;;;62.20;25.15;;;;;;;;;;5028590;28;20014;-64
2021/03/24 07:00:08;;;;;;;51.75;21.83;;;;;;;;;;5128145;22;20044;-91
2021/03/24 07:06:07;;;;;;;47.95;22.90;;;;;;;;;;5065884;28;20511;-86
2021/03/24 07:27:49;;;;;;;;;;;;;;;;;;;;;
2021/03/24 07:30:22;;;;;;;48.33;22.33;;;;;;;;;;5067751;23;20243;-68
2021/03/24 07:32:54;;;;;;;36.75;15.40;;;;;;;;;;5044906;28;20021;-67
2021/03/24 07:35:19;;;;;;;39.05;19.77;;;;;;;;;;5042393;28;20024;-67
2021/03/24 07:37:51;;;;;;;35.97;19.37;;;;;;;;;;5049388;28;20029;-67
2021/03/24 07:40:35;;;;;;;32.53;16.48;;;;;;;;;;5045850;28;20287;-67
2021/03/24 07:43:06;;;;;;;36.03;18.33;;;;;;;;;;5073867;23;20043;-83
2021/03/24 07:45:46;;;;;;;40.60;19.45;;;;;;;;;;5087360;28;20563;-83
2021/03/24 07:48:12;;;;;;;;;;;;;;;;;;5074629;28;20023;-86
2021/03/24 07:50:43;;;;;;;44.93;22.23;;;;;;;;;;5064696;28;20286;-82
2021/03/24 07:53:20;;;;;;;38.25;22.48;;;;;;;;;;5067795;28;20736;-84
2021/03/24 07:55:50;;;;;;;34.33;20.38;;;;;;;;;;5067470;28;20024;-83
2021/03/24 07:58:34;;;;;;;34.50;17.90;;;;;;;;;;5066899;28;20016;-85
2021/03/24 08:01:15;;;;;;;35.17;18.50;;;;;;;;;;5056109;28;20055;-82
2021/03/24 08:04:13;;;;;;;43.20;21.48;;;;;;;;;;5057082;28;20021;-82
2021/03/24 08:07:01;;;;;;;38.95;22.60;;;;;;;;;;5014023;28;20151;-82
2021/03/24 08:09:55;;;;;;;39.30;20.50;;;;;;;;;;5056209;28;20036;-82
2021/03/24 08:12:30;;;;;;;38.78;20.77;;;;;;;;;;5047908;28;20032;-82
2021/03/24 08:15:13;;;;;;;37.22;19.95;;;;;;;;;;5057222;28;20033;-83
2021/03/24 08:17:39;;;;;;;36.88;21.08;;;;;;;;;;5055849;28;20027;-83
2021/03/24 08:20:04;;;;;;;39.60;18.38;;;;;;;;;;5067282;28;20017;-83
2021/03/24 08:22:48;;;;;;;36.73;18.63;;;;;;;;;;5068595;28;20028;-83
2021/03/24 08:25:20;;;;;;;41.78;20.83;;;;;;;;;;5068986;28;20255;-84
2021/03/24 08:28:03;;;;;;;36.22;18.05;;;;;;;;;;5068371;28;20020;-84
2021/03/24 08:30:43;;;;;;;42.75;20.50;;;;;;;;;;5067830;28;20116;-83
2021/03/24 08:33:11;;;;;;;38.42;21.48;;;;;;;;;;5068855;28;20480;-83
2021/03/24 08:35:44;;;;;;;37.53;22.45;;;;;;;;;;5068073;28;20024;-83
2021/03/24 08:38:31;;;;;;;38.35;16.90;;;;;;;;;;5066652;28;20089;-82
2021/03/24 08:41:02;;;;;;;42.90;18.80;;;;;;;;;;5067671;28;20085;-84
2021/03/24 08:43:51;;;;;;;39.03;20.42;;;;;;;;;;5067030;28;20423;-84
2021/03/24 08:46:34;;;;;;;40.65;21.73;;;;;;;;;;5068115;28;20016;-84
2021/03/24 08:49:03;;;;;;;40.95;23.33;;;;;;;;;;5065525;28;20062;-82
2021/03/24 08:51:34;;;;;;;38.50;21.55;;;;;;;;;;5066107;28;20031;-82
2021/03/24 08:54:12;;;;;;;36.08;22.67;;;;;;;;;;5068420;28;20055;-82
2021/03/24 08:56:47;;;;;;;42.17;20.38;;;;;;;;;;5066957;28;20017;-81
2021/03/24 08:59:25;;;;;;;47.42;22.30;;;;;;;;;;5067302;28;20025;-82
2021/03/24 09:01:58;;;;;;;40.47;22.70;;;;;;;;;;5064007;28;20366;-83
2021/03/24 09:04:23;;;;;;;40.65;20.65;;;;;;;;;;5068250;28;20100;-83
2021/03/24 09:06:48;;;;;;;47.00;22.87;;;;;;;;;;5068325;28;20460;-83
2021/03/24 09:09:28;;;;;;;28.48;11.55;;;;;;;;;;5067296;28;20267;-83
2021/03/24 09:12:08;;;;;;;44.20;20.40;;;;;;;;;;5066105;28;20423;-84
2021/03/24 09:14:39;;;;;;;42.88;20.25;;;;;;;;;;5061140;28;20029;-84
2021/03/24 09:17:04;;;;;;;41.03;22.45;;;;;;;;;;5056076;28;20115;-84
2021/03/24 09:19:40;;;;;;;44.50;18.73;;;;;;;;;;5053698;28;20507;-85
2021/03/24 09:22:37;;;;;;;42.67;21.08;;;;;;;;;;5067502;28;20060;-84
2021/03/24 09:25:11;;;;;;;44.08;21.27;;;;;;;;;;5060716;28;20025;-84
2021/03/24 09:27:55;;;;;;;41.78;17.88;;;;;;;;;;5066333;28;20024;-84
2021/03/24 09:30:47;;;;;;;35.78;16.10;;;;;;;;;;5066437;28;20024;-84
2021/03/24 09:33:27;;;;;;;47.30;23.63;;;;;;;;;;5073938;28;20059;-83
2021/03/24 09:36:04;;;;;;;27.88;12.15;;;;;;;;;;5067405;28;20395;-84
2021/03/24 09:38:35;;;;;;;46.65;26.05;;;;;;;;;;5087140;28;20024;-84
2021/03/24 09:41:18;;;;;;;52.38;23.30;;;;;;;;;;5071349;28;20028;-84
2021/03/24 09:43:49;;;;;;;46.20;20.80;;;;;;;;;;5052270;28;20033;-84
2021/03/24 09:46:22;;;;;;;53.10;22.42;;;;;;;;;;5068641;28;20055;-85
2021/03/24 09:48:50;;;;;;;53.40;24.50;;;;;;;;;;5067362;28;20024;-83
2021/03/24 09:51:16;;;;;;;51.17;24.50;;;;;;;;;;5072216;28;20020;-83
2021/03/24 09:53:42;;;;;;;56.15;24.95;;;;;;;;;;5071015;28;20070;-83
2021/03/24 09:56:20;;;;;;;43.15;19.52;;;;;;;;;;5074295;28;20032;-83
2021/03/24 09:58:59;;;;;;;58.00;28.25;;;;;;;;;;5076522;28;20020;-82
2021/03/24 10:01:27;;;;;;;31.15;13.27;;;;;;;;;;5063466;28;20039;-85
2021/03/24 10:03:53;;;;;;;56.97;27.30;;;;;;;;;;5071434;28;20074;-83
2021/03/24 10:06:26;;;;;;;56.92;23.83;;;;;;;;;;5063685;28;20025;-82
2021/03/24 10:09:00;;;;;;;50.40;18.60;;;;;;;;;;5055414;28;20078;-85
2021/03/24 10:11:25;;;;;;;60.28;24.05;;;;;;;;;;5065601;28;20392;-84
2021/03/24 10:14:02;;;;;;;61.80;27.48;;;;;;;;;;5069314;28;20024;-83
2021/03/24 10:16:32;;;;;;;45.55;17.15;;;;;;;;;;5067600;28;20073;-84
2021/03/24 10:19:02;;;;;;;58.17;24.92;;;;;;;;;;5070978;28;20138;-83
2021/03/24 10:21:45;;;;;;;73.43;32.42;;;;;;;;;;5075665;28;20337;-84
2021/03/24 10:24:13;;;;;;;75.78;31.63;;;;;;;;;;5071750;28;20017;-84
2021/03/24 10:26:44;;;;;;;32.38;14.13;;;;;;;;;;5065588;28;20054;-84
2021/03/24 10:29:12;;;;;;;63.97;28.80;;;;;;;;;;5067976;28;20024;-84
2021/03/24 10:31:37;;;;;;;72.30;32.40;;;;;;;;;;5069342;28;20024;-84
2021/03/24 10:34:21;;;;;;;41.33;14.32;;;;;;;;;;5070668;28;20395;-85
2021/03/24 10:36:46;;;;;;;62.70;27.40;;;;;;;;;;5072224;28;20078;-84
2021/03/24 10:39:11;;;;;;;54.80;22.20;;;;;;;;;;5077241;28;20016;-84
2021/03/24 10:41:42;;;;;;;64.40;25.20;;;;;;;;;;5083940;28;20294;-84
2021/03/24 10:44:18;;;;;;;64.10;27.40;;;;;;;;;;5080532;28;20270;-83
2021/03/24 10:46:43;;;;;;;68.90;26.73;;;;;;;;;;5071242;28;20087;-84
2021/03/24 10:49:14;;;;;;;57.13;19.25;;;;;;;;;;5076123;28;20476;-84
2021/03/24 10:51:39;;;;;;;55.17;22.30;;;;;;;;;;5071706;28;20542;-83
2021/03/24 10:54:13;;;;;;;75.13;31.97;;;;;;;;;;5069861;28;20060;-85
2021/03/24 10:56:47;;;;;;;59.03;21.02;;;;;;;;;;5069445;28;20267;-84
2021/03/24 10:59:16;;;;;;;70.65;33.63;;;;;;;;;;5063898;28;20128;-84
2021/03/24 11:01:59;;;;;;;63.53;25.83;;;;;;;;;;5055740;28;20025;-83
2021/03/24 11:04:27;;;;;;;63.97;29.25;;;;;;;;;;5063943;28;20020;-84
2021/03/24 11:07:05;;;;;;;66.28;30.65;;;;;;;;;;5058910;28;20043;-84
2021/03/24 11:09:42;;;;;;;65.75;30.73;;;;;;;;;;5068783;28;20016;-83
2021/03/24 11:12:10;;;;;;;66.28;29.50;;;;;;;;;;5070291;28;20035;-85
2021/03/24 11:14:37;;;;;;;78.18;34.30;;;;;;;;;;5070920;28;20023;-84
2021/03/24 11:17:07;;;;;;;78.57;34.15;;;;;;;;;;5063810;28;20020;-83
2021/03/24 11:19:40;;;;;;;51.20;21.42;;;;;;;;;;5069399;28;20060;-84
2021/03/24 11:22:24;;;;;;;51.63;18.60;;;;;;;;;;5070976;28;20078;-85
2021/03/24 11:24:49;;;;;;;63.63;30.27;;;;;;;;;;5065922;28;20039;-83
2021/03/24 11:27:14;;;;;;;64.90;29.73;;;;;;;;;;5066078;28;20028;-85
2021/03/24 11:29:45;;;;;;;60.17;25.73;;;;;;;;;;5068704;28;20024;-84
2021/03/24 11:32:34;;;;;;;76.80;31.95;;;;;;;;;;5066661;28;20025;-85
2021/03/24 11:35:19;;;;;;;71.40;33.10;;;;;;;;;;5059008;28;20085;-84
2021/03/24 11:37:55;;;;;;;67.72;32.67;;;;;;;;;;5067966;28;20401;-84
2021/03/24 11:40:27;;;;;;;79.05;38.00;;;;;;;;;;5068304;28;20554;-85
2021/03/24 11:43:03;;;;;;;77.30;31.42;;;;;;;;;;5067735;28;20485;-85
2021/03/24 11:45:30;;;;;;;70.43;25.25;;;;;;;;;;5063556;28;20024;-85
2021/03/24 11:48:01;;;;;;;75.22;31.40;;;;;;;;;;5078122;28;20154;-85
2021/03/24 11:50:29;;;;;;;69.55;31.02;;;;;;;;;;5069671;28;20024;-84
2021/03/24 11:53:13;;;;;;;76.05;31.02;;;;;;;;;;5071472;28;20151;-84
2021/03/24 11:55:54;;;;;;;75.55;21.77;;;;;;;;;;5063189;28;20032;-84
2021/03/24 11:58:36;;;;;;;72.13;22.65;;;;;;;;;;5062306;28;20600;-85
2021/03/24 12:01:01;;;;;;;72.93;32.58;;;;;;;;;;5066823;28;20025;-84
2021/03/24 12:03:36;;;;;;;67.75;29.17;;;;;;;;;;5068039;28;20540;-84
2021/03/24 12:06:10;;;;;;;54.15;21.13;;;;;;;;;;5068792;28;20121;-84
2021/03/24 12:08:42;;;;;;;51.78;17.45;;;;;;;;;;5064498;28;20029;-84
2021/03/24 12:11:13;;;;;;;68.35;33.58;;;;;;;;;;5068209;28;20031;-84
2021/03/24 12:13:39;;;;;;;62.72;26.25;;;;;;;;;;5067748;28;20028;-83
2021/03/24 12:16:04;;;;;;;54.80;22.95;;;;;;;;;;5068949;28;20103;-84
2021/03/24 12:18:44;;;;;;;75.97;30.15;;;;;;;;;;5064303;28;20017;-84
2021/03/24 12:21:18;;;;;;;72.65;34.53;;;;;;;;;;5061576;28;20466;-83
2021/03/24 12:23:44;;;;;;;71.82;31.52;;;;;;;;;;5071893;28;20024;-83
2021/03/24 12:26:20;;;;;;;66.07;32.20;;;;;;;;;;5070358;28;20145;-84
2021/03/24 12:28:45;;;;;;;71.05;29.77;;;;;;;;;;5067397;28;20460;-83
2021/03/24 12:31:19;;;;;;;68.07;32.00;;;;;;;;;;5069010;28;20017;-85
2021/03/24 12:34:05;;;;;;;61.15;25.95;;;;;;;;;;5067993;28;20500;-85
2021/03/24 12:36:30;;;;;;;70.47;28.90;;;;;;;;;;5068658;28;20016;-84
2021/03/24 12:38:58;;;;;;;48.30;20.30;;;;;;;;;;5068123;28;20027;-84
2021/03/24 12:41:43;;;;;;;45.38;18.10;;;;;;;;;;5067674;28;20013;-83
2021/03/24 12:44:11;;;;;;;36.33;15.45;;;;;;;;;;5068990;28;20400;-84
2021/03/24 12:46:45;;;;;;;39.92;19.15;;;;;;;;;;5069413;28;20062;-85
2021/03/24 12:49:16;;;;;;;40.72;16.70;;;;;;;;;;5065839;28;20029;-84
2021/03/24 12:51:46;;;;;;;66.28;26.88;;;;;;;;;;5069102;28;20025;-84
2021/03/24 12:54:12;;;;;;;52.28;22.10;;;;;;;;;;5053686;28;20033;-85
2021/03/24 12:56:44;;;;;;;67.28;28.73;;;;;;;;;;5069183;28;20021;-84
2021/03/24 12:59:15;;;;;;;49.45;18.15;;;;;;;;;;5062543;28;20025;-85
2021/03/24 13:02:00;;;;;;;78.68;33.05;;;;;;;;;;5064383;28;20017;-85
2021/03/24 13:04:36;;;;;;;63.95;24.95;;;;;;;;;;5066264;28;20437;-84
2021/03/24 13:07:14;;;;;;;49.67;17.77;;;;;;;;;;5068163;28;20031;-85
2021/03/24 13:09:53;;;;;;;78.07;28.95;;;;;;;;;;5069760;28;20019;-84
2021/03/24 13:12:22;;;;;;;63.85;28.58;;;;;;;;;;5065403;28;20393;-84
2021/03/24 13:15:06;;;;;;;62.50;28.77;;;;;;;;;;5067801;28;20059;-84
2021/03/24 13:17:49;;;;;;;43.47;16.58;;;;;;;;;;5069374;28;20067;-85
2021/03/24 13:20:19;;;;;;;53.03;18.67;;;;;;;;;;5072708;28;20017;-85
2021/03/24 13:22:57;;;;;;;67.68;29.55;;;;;;;;;;5061188;28;20020;-84
2021/03/24 13:25:34;;;;;;;61.88;26.83;;;;;;;;;;5071149;28;20020;-84
2021/03/24 13:30:38;;;;;;;47.42;17.73;;;;;;;;;;5038977;28;20049;-64
2021/03/24 13:33:03;;;;;;;48.25;18.75;;;;;;;;;;5048277;28;20067;-64
2021/03/24 13:35:28;;;;;;;54.77;25.97;;;;;;;;;;5052917;28;20029;-64
2021/03/24 13:37:54;;;;;;;59.10;26.38;;;;;;;;;;5049034;28;20251;-64
2021/03/24 13:40:22;;;;;;;45.15;16.10;;;;;;;;;;5051480;28;20090;-64
2021/03/24 13:42:59;;;;;;;51.97;21.88;;;;;;;;;;5047784;28;20018;-64
2021/03/24 13:45:29;;;;;;;51.33;19.77;;;;;;;;;;5050375;28;20048;-64
2021/03/24 13:47:57;;;;;;;47.23;18.93;;;;;;;;;;5051883;28;20308;-64
2021/03/24 13:50:25;;;;;;;62.70;27.83;;;;;;;;;;5049374;28;20513;-64
2021/03/24 13:52:53;;;;;;;57.00;23.60;;;;;;;;;;5052392;28;20017;-65
2021/03/24 13:55:37;;;;;;;56.58;25.20;;;;;;;;;;5052531;28;20017;-64
2021/03/24 13:58:21;;;;;;;47.28;23.30;;;;;;;;;;5051707;28;20032;-64
2021/03/24 14:01:04;;;;;;;42.45;16.20;;;;;;;;;;5045306;28;20018;-64
2021/03/24 14:03:36;;;;;;;34.63;13.50;;;;;;;;;;5049708;28;20027;-64
2021/03/24 14:06:06;;;;;;;40.15;15.10;;;;;;;;;;5052109;28;20039;-64
2021/03/24 14:08:41;;;;;;;51.27;22.47;;;;;;;;;;5052285;28;20025;-63
2021/03/24 14:11:09;;;;;;;49.28;22.08;;;;;;;;;;5050532;28;20033;-63
2021/03/24 14:13:54;;;;;;;52.33;16.15;;;;;;;;;;5051499;28;20021;-63
2021/03/24 14:16:36;;;;;;;48.78;19.42;;;;;;;;;;5050882;28;20084;-63
2021/03/24 14:19:17;;;;;;;50.85;21.85;;;;;;;;;;5047418;28;20023;-65
2021/03/24 14:21:51;;;;;;;50.88;21.58;;;;;;;;;;5056544;28;20021;-66
2021/03/24 14:24:19;;;;;;;47.35;22.13;;;;;;;;;;5058181;28;20104;-66
2021/03/24 14:26:44;;;;;;;44.95;20.85;;;;;;;;;;5052974;28;20106;-66
2021/03/24 14:29:28;;;;;;;48.70;19.30;;;;;;;;;;5054070;28;20032;-66
2021/03/24 14:31:57;;;;;;;43.67;20.10;;;;;;;;;;5052160;28;20833;-66
2021/03/24 14:34:22;;;;;;;48.22;20.08;;;;;;;;;;5053474;28;20061;-66
2021/03/24 14:36:49;;;;;;;53.28;21.10;;;;;;;;;;5053597;28;20021;-66
2021/03/24 14:39:14;;;;;;;47.90;19.83;;;;;;;;;;5054277;28;20075;-66
2021/03/24 14:41:54;;;;;;;47.00;15.67;;;;;;;;;;5052330;28;20027;-66
2021/03/24 14:44:19;;;;;;;;;;;;;;;;;;5053532;28;20469;-66
2021/03/24 14:46:58;;;;;;;46.95;19.70;;;;;;;;;;5036624;28;19908;-65
2021/03/24 14:49:42;;;;;;;40.95;14.57;;;;;;;;;;5052757;28;20521;-66
2021/03/24 14:52:24;;;;;;;46.75;17.70;;;;;;;;;;5044552;28;20473;-67
2021/03/24 14:54:51;;;;;;;43.45;19.30;;;;;;;;;;5051994;28;20370;-65
2021/03/24 14:57:25;;;;;;;38.20;15.00;;;;;;;;;;5051153;28;20109;-66
2021/03/24 14:59:51;;;;;;;37.03;14.77;;;;;;;;;;5049001;28;20464;-65
2021/03/24 15:02:16;;;;;;;43.28;17.88;;;;;;;;;;5051124;28;20093;-65
2021/03/24 15:04:42;;;;;;;36.22;16.70;;;;;;;;;;5048996;28;20481;-65
2021/03/24 15:07:26;;;;;;;40.53;17.83;;;;;;;;;;5050677;28;20017;-64
2021/03/24 15:10:12;;;;;;;42.58;18.50;;;;;;;;;;5045483;28;20048;-65